sensor_id;sensor_type;location;lat;lon;timestamp;pressure;altitude;pressure_sealevel;temperature;humidity
83492;BME280;73661;56.120;12.302;2023-10-31T00:01:21;99719.38;;;10.74;75.20
83492;BME280;73661;56.120;12.302;2023-10-31T00:03:46;99721.06;;;10.76;75.24
83492;BME280;73661;56.120;12.302;2023-10-31T00:06:12;99709.75;;;10.79;75.10
83492;BME280;73661;56.120;12.302;2023-10-31T00:08:38;99703.63;;;10.80;75.08
83492;BME280;73661;56.120;12.302;2023-10-31T00:11:03;99701.84;;;10.85;75.09
83492;BME280;73661;56.120;12.302;2023-10-31T00:13:29;99700.91;;;10.90;74.79
83492;BME280;73661;56.120;12.302;2023-10-31T00:15:55;99692.19;;;10.91;74.55
83492;BME280;73661;56.120;12.302;2023-10-31T00:18:21;99692.19;;;10.93;74.01
83492;BME280;73661;56.120;12.302;2023-10-31T00:20:47;99695.69;;;10.89;74.38
83492;BME280;73661;56.120;12.302;2023-10-31T00:23:14;99682.81;;;10.77;74.82
83492;BME280;73661;56.120;12.302;2023-10-31T00:25:40;99685.38;;;10.80;74.56
83492;BME280;73661;56.120;12.302;2023-10-31T00:28:06;99678.41;;;10.80;75.16
83492;BME280;73661;56.120;12.302;2023-10-31T00:30:31;99669.78;;;10.72;75.43
83492;BME280;73661;56.120;12.302;2023-10-31T00:32:57;99674.97;;;10.77;74.60
83492;BME280;73661;56.120;12.302;2023-10-31T00:35:23;99663.66;;;10.75;75.03
83492;BME280;73661;56.120;12.302;2023-10-31T00:37:48;99667.16;;;10.74;75.54
83492;BME280;73661;56.120;12.302;2023-10-31T00:40:15;99668.94;;;10.72;75.46
83492;BME280;73661;56.120;12.302;2023-10-31T00:42:42;99675.88;;;10.73;75.21
83492;BME280;73661;56.120;12.302;2023-10-31T00:45:08;99670.59;;;10.76;75.21
83492;BME280;73661;56.120;12.302;2023-10-31T00:47:35;99662.75;;;10.79;75.20
83492;BME280;73661;56.120;12.302;2023-10-31T00:50:01;99663.59;;;10.84;74.96
83492;BME280;73661;56.120;12.302;2023-10-31T00:52:27;99649.59;;;10.88;75.34
83492;BME280;73661;56.120;12.302;2023-10-31T00:54:53;99651.25;;;10.95;75.04
83492;BME280;73661;56.120;12.302;2023-10-31T00:57:18;99648.59;;;10.98;74.69
83492;BME280;73661;56.120;12.302;2023-10-31T00:59:44;99643.34;;;11.01;74.85
83492;BME280;73661;56.120;12.302;2023-10-31T01:02:10;99634.69;;;10.96;74.33
83492;BME280;73661;56.120;12.302;2023-10-31T01:04:36;99633.72;;;11.03;74.54
83492;BME280;73661;56.120;12.302;2023-10-31T01:07:02;99624.06;;;11.10;74.86
83492;BME280;73661;56.120;12.302;2023-10-31T01:09:28;99623.28;;;11.03;74.66
83492;BME280;73661;56.120;12.302;2023-10-31T01:11:54;99620.84;;;10.91;74.88
83492;BME280;73661;56.120;12.302;2023-10-31T01:14:20;99616.91;;;10.58;75.93
83492;BME280;73661;56.120;12.302;2023-10-31T01:16:45;99609.56;;;10.06;78.33
83492;BME280;73661;56.120;12.302;2023-10-31T01:19:11;99609.03;;;9.70;80.66
83492;BME280;73661;56.120;12.302;2023-10-31T01:21:37;99607.69;;;10.25;78.56
83492;BME280;73661;56.120;12.302;2023-10-31T01:24:02;99610.78;;;9.70;80.98
83492;BME280;73661;56.120;12.302;2023-10-31T01:26:28;99606.81;;;10.21;79.09
83492;BME280;73661;56.120;12.302;2023-10-31T01:28:54;99607.66;;;10.22;79.14
83492;BME280;73661;56.120;12.302;2023-10-31T01:31:20;99610.34;;;10.16;79.13
83492;BME280;73661;56.120;12.302;2023-10-31T01:33:45;99603.19;;;10.39;78.25
83492;BME280;73661;56.120;12.302;2023-10-31T01:36:11;99601.53;;;10.29;78.59
83492;BME280;73661;56.120;12.302;2023-10-31T01:38:38;99586.13;;;10.04;79.84
83492;BME280;73661;56.120;12.302;2023-10-31T01:41:04;99578.19;;;10.15;80.01
83492;BME280;73661;56.120;12.302;2023-10-31T01:43:36;99583.09;;;10.47;78.30
83492;BME280;73661;56.120;12.302;2023-10-31T01:46:02;99566.78;;;10.30;78.76
83492;BME280;73661;56.120;12.302;2023-10-31T01:48:32;99568.56;;;10.20;79.48
83492;BME280;73661;56.120;12.302;2023-10-31T01:50:59;99567.66;;;10.27;78.94
83492;BME280;73661;56.120;12.302;2023-10-31T01:53:29;99570.84;;;10.52;78.09
83492;BME280;73661;56.120;12.302;2023-10-31T01:55:58;99561.19;;;10.60;77.47
83492;BME280;73661;56.120;12.302;2023-10-31T01:58:33;99561.25;;;10.57;78.00
83492;BME280;73661;56.120;12.302;2023-10-31T02:01:00;99559.03;;;10.24;79.12
83492;BME280;73661;56.120;12.302;2023-10-31T02:03:29;99554.94;;;9.94;80.27
83492;BME280;73661;56.120;12.302;2023-10-31T02:05:55;99560.31;;;9.77;80.82
83492;BME280;73661;56.120;12.302;2023-10-31T02:08:21;99554.97;;;9.92;80.86
83492;BME280;73661;56.120;12.302;2023-10-31T02:10:47;99549.75;;;9.89;80.88
83492;BME280;73661;56.120;12.302;2023-10-31T02:13:15;99547.22;;;9.85;81.04
83492;BME280;73661;56.120;12.302;2023-10-31T02:15:42;99542.53;;;10.19;80.09
83492;BME280;73661;56.120;12.302;2023-10-31T02:18:08;99539.25;;;9.98;80.38
83492;BME280;73661;56.120;12.302;2023-10-31T02:20:35;99537.06;;;10.43;78.96
83492;BME280;73661;56.120;12.302;2023-10-31T02:23:01;99524.63;;;10.62;78.20
83492;BME280;73661;56.120;12.302;2023-10-31T02:25:27;99513.16;;;10.74;78.05
83492;BME280;73661;56.120;12.302;2023-10-31T02:27:53;99501.34;;;11.08;76.40
83492;BME280;73661;56.120;12.302;2023-10-31T02:30:19;99504.56;;;11.26;75.97
83492;BME280;73661;56.120;12.302;2023-10-31T02:32:45;99496.13;;;11.08;76.16
83492;BME280;73661;56.120;12.302;2023-10-31T02:35:11;99492.63;;;11.09;76.29
83492;BME280;73661;56.120;12.302;2023-10-31T02:37:37;99490.72;;;10.63;77.86
83492;BME280;73661;56.120;12.302;2023-10-31T02:40:03;99493.50;;;11.08;77.05
83492;BME280;73661;56.120;12.302;2023-10-31T02:42:29;99485.16;;;10.86;78.03
83492;BME280;73661;56.120;12.302;2023-10-31T02:44:55;99491.13;;;10.95;77.05
83492;BME280;73661;56.120;12.302;2023-10-31T02:47:20;99494.66;;;10.89;77.21
83492;BME280;73661;56.120;12.302;2023-10-31T02:49:46;99484.91;;;11.02;76.73
83492;BME280;73661;56.120;12.302;2023-10-31T02:52:11;99492.91;;;10.89;77.87
83492;BME280;73661;56.120;12.302;2023-10-31T02:54:37;99486.63;;;11.03;77.17
83492;BME280;73661;56.120;12.302;2023-10-31T02:57:03;99487.47;;;11.06;77.79
83492;BME280;73661;56.120;12.302;2023-10-31T02:59:29;99475.06;;;11.19;77.18
83492;BME280;73661;56.120;12.302;2023-10-31T03:01:57;99475.81;;;11.27;76.82
83492;BME280;73661;56.120;12.302;2023-10-31T03:04:23;99485.34;;;11.30;76.28
83492;BME280;73661;56.120;12.302;2023-10-31T03:06:49;99480.88;;;11.38;76.61
83492;BME280;73661;56.120;12.302;2023-10-31T03:09:15;99489.16;;;11.10;76.79
83492;BME280;73661;56.120;12.302;2023-10-31T03:11:40;99485.59;;;11.14;77.48
83492;BME280;73661;56.120;12.302;2023-10-31T03:14:06;99494.31;;;11.13;77.16
83492;BME280;73661;56.120;12.302;2023-10-31T03:16:32;99491.75;;;10.50;79.84
83492;BME280;73661;56.120;12.302;2023-10-31T03:18:58;99500.38;;;10.54;81.17
83492;BME280;73661;56.120;12.302;2023-10-31T03:21:24;99487.59;;;10.34;80.73
83492;BME280;73661;56.120;12.302;2023-10-31T03:23:50;99492.06;;;10.26;80.92
83492;BME280;73661;56.120;12.302;2023-10-31T03:26:18;99487.00;;;10.07;82.24
83492;BME280;73661;56.120;12.302;2023-10-31T03:28:44;99490.88;;;9.73;83.24
83492;BME280;73661;56.120;12.302;2023-10-31T03:31:11;99486.41;;;9.82;82.63
83492;BME280;73661;56.120;12.302;2023-10-31T03:33:37;99485.69;;;9.70;83.72
83492;BME280;73661;56.120;12.302;2023-10-31T03:36:04;99492.56;;;9.75;83.39
83492;BME280;73661;56.120;12.302;2023-10-31T03:38:31;99488.31;;;9.67;84.14
83492;BME280;73661;56.120;12.302;2023-10-31T03:40:57;99483.81;;;9.82;83.21
83492;BME280;73661;56.120;12.302;2023-10-31T03:43:22;99476.44;;;9.38;85.21
83492;BME280;73661;56.120;12.302;2023-10-31T03:45:48;99480.66;;;9.51;84.90
83492;BME280;73661;56.120;12.302;2023-10-31T03:48:16;99477.97;;;9.59;83.63
83492;BME280;73661;56.120;12.302;2023-10-31T03:50:42;99465.91;;;9.50;84.57
83492;BME280;73661;56.120;12.302;2023-10-31T03:53:08;99466.03;;;9.34;84.85
83492;BME280;73661;56.120;12.302;2023-10-31T03:55:34;99461.88;;;9.13;85.33
83492;BME280;73661;56.120;12.302;2023-10-31T03:58:00;99466.16;;;9.23;84.74
83492;BME280;73661;56.120;12.302;2023-10-31T04:00:26;99462.78;;;9.07;85.31
83492;BME280;73661;56.120;12.302;2023-10-31T04:02:52;99458.66;;;8.80;86.35
83492;BME280;73661;56.120;12.302;2023-10-31T04:05:18;99455.81;;;9.09;85.39
83492;BME280;73661;56.120;12.302;2023-10-31T04:07:47;99454.00;;;9.22;85.24
83492;BME280;73661;56.120;12.302;2023-10-31T04:10:13;99459.38;;;9.04;85.66
83492;BME280;73661;56.120;12.302;2023-10-31T04:12:38;99455.00;;;9.02;85.75
83492;BME280;73661;56.120;12.302;2023-10-31T04:15:05;99457.59;;;9.06;85.76
83492;BME280;73661;56.120;12.302;2023-10-31T04:17:31;99461.94;;;9.05;85.22
83492;BME280;73661;56.120;12.302;2023-10-31T04:19:56;99452.41;;;9.04;84.95
83492;BME280;73661;56.120;12.302;2023-10-31T04:22:22;99445.53;;;8.94;85.42
83492;BME280;73661;56.120;12.302;2023-10-31T04:24:48;99449.03;;;8.91;86.22
83492;BME280;73661;56.120;12.302;2023-10-31T04:27:14;99451.66;;;8.91;85.67
83492;BME280;73661;56.120;12.302;2023-10-31T04:29:39;99444.78;;;8.81;86.03
83492;BME280;73661;56.120;12.302;2023-10-31T04:32:05;99436.16;;;8.73;86.12
83492;BME280;73661;56.120;12.302;2023-10-31T04:34:31;99435.19;;;8.88;86.13
83492;BME280;73661;56.120;12.302;2023-10-31T04:36:57;99428.28;;;8.84;86.34
83492;BME280;73661;56.120;12.302;2023-10-31T04:39:23;99432.69;;;8.77;86.25
83492;BME280;73661;56.120;12.302;2023-10-31T04:41:49;99421.31;;;8.90;85.82
83492;BME280;73661;56.120;12.302;2023-10-31T04:44:15;99424.59;;;9.09;85.06
83492;BME280;73661;56.120;12.302;2023-10-31T04:46:42;99425.44;;;9.13;84.64
83492;BME280;73661;56.120;12.302;2023-10-31T04:49:08;99420.25;;;9.13;84.56
83492;BME280;73661;56.120;12.302;2023-10-31T04:51:35;99418.50;;;9.12;84.12
83492;BME280;73661;56.120;12.302;2023-10-31T04:54:01;99427.88;;;9.33;83.74
83492;BME280;73661;56.120;12.302;2023-10-31T04:56:27;99417.91;;;8.79;85.16
83492;BME280;73661;56.120;12.302;2023-10-31T04:58:52;99419.53;;;8.92;85.11
83492;BME280;73661;56.120;12.302;2023-10-31T05:01:18;99413.63;;;8.72;85.14
83492;BME280;73661;56.120;12.302;2023-10-31T05:03:45;99421.38;;;8.80;85.80
83492;BME280;73661;56.120;12.302;2023-10-31T05:06:11;99420.53;;;8.76;85.79
83492;BME280;73661;56.120;12.302;2023-10-31T05:08:37;99414.53;;;8.62;86.24
83492;BME280;73661;56.120;12.302;2023-10-31T05:11:03;99410.94;;;8.84;85.61
83492;BME280;73661;56.120;12.302;2023-10-31T05:13:29;99409.19;;;8.86;85.12
83492;BME280;73661;56.120;12.302;2023-10-31T05:15:54;99403.19;;;8.78;85.77
83492;BME280;73661;56.120;12.302;2023-10-31T05:18:20;99401.56;;;8.59;86.35
83492;BME280;73661;56.120;12.302;2023-10-31T05:20:46;99398.94;;;8.62;86.13
83492;BME280;73661;56.120;12.302;2023-10-31T05:23:12;99395.34;;;8.80;85.84
83492;BME280;73661;56.120;12.302;2023-10-31T05:25:37;99391.13;;;8.62;86.21
83492;BME280;73661;56.120;12.302;2023-10-31T05:28:04;99391.09;;;8.68;86.19
83492;BME280;73661;56.120;12.302;2023-10-31T05:30:29;99384.13;;;8.73;86.13
83492;BME280;73661;56.120;12.302;2023-10-31T05:32:55;99385.00;;;8.72;85.98
83492;BME280;73661;56.120;12.302;2023-10-31T05:35:21;99392.81;;;8.72;85.99
83492;BME280;73661;56.120;12.302;2023-10-31T05:37:47;99391.84;;;8.85;85.44
83492;BME280;73661;56.120;12.302;2023-10-31T05:40:15;99394.44;;;8.85;86.01
83492;BME280;73661;56.120;12.302;2023-10-31T05:42:41;99390.16;;;8.78;86.12
83492;BME280;73661;56.120;12.302;2023-10-31T05:45:07;99397.81;;;8.98;85.21
83492;BME280;73661;56.120;12.302;2023-10-31T05:47:33;99394.44;;;8.85;85.95
83492;BME280;73661;56.120;12.302;2023-10-31T05:49:58;99388.28;;;8.94;85.78
83492;BME280;73661;56.120;12.302;2023-10-31T05:52:30;99384.81;;;8.98;85.87
83492;BME280;73661;56.120;12.302;2023-10-31T05:54:57;99387.13;;;9.27;84.95
83492;BME280;73661;56.120;12.302;2023-10-31T05:57:23;99386.50;;;9.04;85.79
83492;BME280;73661;56.120;12.302;2023-10-31T05:59:48;99385.41;;;9.26;84.80
83492;BME280;73661;56.120;12.302;2023-10-31T06:02:14;99382.13;;;9.06;85.15
83492;BME280;73661;56.120;12.302;2023-10-31T06:04:40;99378.94;;;9.62;83.50
83492;BME280;73661;56.120;12.302;2023-10-31T06:07:06;99379.00;;;9.56;83.02
83492;BME280;73661;56.120;12.302;2023-10-31T06:09:33;99373.00;;;9.49;83.77
83492;BME280;73661;56.120;12.302;2023-10-31T06:12:00;99372.28;;;9.35;83.68
83492;BME280;73661;56.120;12.302;2023-10-31T06:14:25;99369.34;;;9.66;83.07
83492;BME280;73661;56.120;12.302;2023-10-31T06:16:52;99374.38;;;9.81;82.00
83492;BME280;73661;56.120;12.302;2023-10-31T06:19:17;99377.00;;;9.79;82.11
83492;BME280;73661;56.120;12.302;2023-10-31T06:21:43;99367.69;;;9.59;83.08
83492;BME280;73661;56.120;12.302;2023-10-31T06:24:09;99365.94;;;9.61;83.08
83492;BME280;73661;56.120;12.302;2023-10-31T06:26:35;99374.59;;;9.64;82.90
83492;BME280;73661;56.120;12.302;2023-10-31T06:29:00;99359.50;;;9.89;81.99
83492;BME280;73661;56.120;12.302;2023-10-31T06:31:26;99361.72;;;10.20;80.96
83492;BME280;73661;56.120;12.302;2023-10-31T06:33:52;99353.00;;;10.21;80.71
83492;BME280;73661;56.120;12.302;2023-10-31T06:36:18;99355.38;;;9.73;82.54
83492;BME280;73661;56.120;12.302;2023-10-31T06:38:43;99354.38;;;9.81;82.48
83492;BME280;73661;56.120;12.302;2023-10-31T06:41:09;99344.44;;;10.09;81.91
83492;BME280;73661;56.120;12.302;2023-10-31T06:43:35;99338.75;;;9.81;82.35
83492;BME280;73661;56.120;12.302;2023-10-31T06:46:01;99354.78;;;9.48;83.69
83492;BME280;73661;56.120;12.302;2023-10-31T06:48:28;99344.44;;;9.43;83.93
83492;BME280;73661;56.120;12.302;2023-10-31T06:50:54;99337.44;;;9.47;84.20
83492;BME280;73661;56.120;12.302;2023-10-31T06:53:19;99338.38;;;9.41;84.51
83492;BME280;73661;56.120;12.302;2023-10-31T06:55:45;99333.06;;;9.50;84.51
83492;BME280;73661;56.120;12.302;2023-10-31T06:58:11;99333.16;;;9.41;84.22
83492;BME280;73661;56.120;12.302;2023-10-31T07:00:36;99326.03;;;9.55;83.67
83492;BME280;73661;56.120;12.302;2023-10-31T07:03:03;99326.09;;;9.49;84.01
83492;BME280;73661;56.120;12.302;2023-10-31T07:05:34;99321.00;;;9.40;84.65
83492;BME280;73661;56.120;12.302;2023-10-31T07:08:00;99318.31;;;9.48;84.67
83492;BME280;73661;56.120;12.302;2023-10-31T07:10:26;99308.19;;;9.23;85.20
83492;BME280;73661;56.120;12.302;2023-10-31T07:12:51;99314.09;;;9.39;85.26
83492;BME280;73661;56.120;12.302;2023-10-31T07:15:17;99308.94;;;9.36;85.48
83492;BME280;73661;56.120;12.302;2023-10-31T07:17:43;99302.59;;;9.55;84.95
83492;BME280;73661;56.120;12.302;2023-10-31T07:20:08;99307.56;;;9.75;84.16
83492;BME280;73661;56.120;12.302;2023-10-31T07:22:34;99303.44;;;9.59;84.12
83492;BME280;73661;56.120;12.302;2023-10-31T07:25:00;99289.63;;;9.49;85.07
83492;BME280;73661;56.120;12.302;2023-10-31T07:27:29;99299.09;;;9.60;85.02
83492;BME280;73661;56.120;12.302;2023-10-31T07:29:55;99296.53;;;9.57;84.82
83492;BME280;73661;56.120;12.302;2023-10-31T07:32:20;99289.56;;;9.59;84.54
83492;BME280;73661;56.120;12.302;2023-10-31T07:34:46;99299.38;;;9.35;84.99
83492;BME280;73661;56.120;12.302;2023-10-31T07:37:12;99300.94;;;9.48;84.49
83492;BME280;73661;56.120;12.302;2023-10-31T07:39:37;99302.56;;;9.59;83.94
83492;BME280;73661;56.120;12.302;2023-10-31T07:42:03;99307.00;;;9.52;83.51
83492;BME280;73661;56.120;12.302;2023-10-31T07:44:29;99307.13;;;9.40;83.84
83492;BME280;73661;56.120;12.302;2023-10-31T07:46:55;99310.78;;;9.25;84.17
83492;BME280;73661;56.120;12.302;2023-10-31T07:49:21;99308.81;;;9.45;83.50
83492;BME280;73661;56.120;12.302;2023-10-31T07:51:47;99312.28;;;9.46;83.07
83492;BME280;73661;56.120;12.302;2023-10-31T07:54:14;99306.53;;;9.18;83.56
83492;BME280;73661;56.120;12.302;2023-10-31T07:56:40;99307.34;;;9.23;84.11
83492;BME280;73661;56.120;12.302;2023-10-31T07:59:06;99310.22;;;8.97;84.45
83492;BME280;73661;56.120;12.302;2023-10-31T08:01:33;99308.53;;;8.88;84.54
83492;BME280;73661;56.120;12.302;2023-10-31T08:03:59;99305.09;;;8.86;84.31
83492;BME280;73661;56.120;12.302;2023-10-31T08:06:25;99298.34;;;8.67;84.50
83492;BME280;73661;56.120;12.302;2023-10-31T08:08:51;99294.06;;;8.60;84.75
83492;BME280;73661;56.120;12.302;2023-10-31T08:11:16;99291.34;;;8.72;84.43
83492;BME280;73661;56.120;12.302;2023-10-31T08:13:42;99289.69;;;8.65;84.46
83492;BME280;73661;56.120;12.302;2023-10-31T08:16:08;99280.34;;;8.41;85.05
83492;BME280;73661;56.120;12.302;2023-10-31T08:18:34;99281.91;;;8.62;84.98
83492;BME280;73661;56.120;12.302;2023-10-31T08:21:01;99276.88;;;8.42;85.13
83492;BME280;73661;56.120;12.302;2023-10-31T08:23:29;99277.72;;;8.45;84.93
83492;BME280;73661;56.120;12.302;2023-10-31T08:25:55;99276.91;;;8.33;84.71
83492;BME280;73661;56.120;12.302;2023-10-31T08:28:21;99274.34;;;8.30;85.18
83492;BME280;73661;56.120;12.302;2023-10-31T08:30:47;99276.88;;;8.40;84.66
83492;BME280;73661;56.120;12.302;2023-10-31T08:33:13;99277.78;;;8.32;84.90
83492;BME280;73661;56.120;12.302;2023-10-31T08:35:39;99278.75;;;8.23;85.11
83492;BME280;73661;56.120;12.302;2023-10-31T08:38:05;99278.78;;;8.17;84.84
83492;BME280;73661;56.120;12.302;2023-10-31T08:40:31;99276.97;;;8.25;85.06
83492;BME280;73661;56.120;12.302;2023-10-31T08:42:56;99273.59;;;8.17;84.90
83492;BME280;73661;56.120;12.302;2023-10-31T08:45:23;99283.09;;;8.19;84.33
83492;BME280;73661;56.120;12.302;2023-10-31T08:47:49;99277.81;;;8.27;84.05
83492;BME280;73661;56.120;12.302;2023-10-31T08:50:15;99272.63;;;8.27;83.87
83492;BME280;73661;56.120;12.302;2023-10-31T08:52:41;99283.25;;;9.01;81.24
83492;BME280;73661;56.120;12.302;2023-10-31T08:55:07;99282.41;;;9.00;80.59
83492;BME280;73661;56.120;12.302;2023-10-31T08:57:32;99280.97;;;8.70;81.39
83492;BME280;73661;56.120;12.302;2023-10-31T08:59:59;99281.22;;;8.34;82.32
83492;BME280;73661;56.120;12.302;2023-10-31T09:02:25;99277.59;;;8.59;82.25
83492;BME280;73661;56.120;12.302;2023-10-31T09:04:51;99278.38;;;8.69;81.26
83492;BME280;73661;56.120;12.302;2023-10-31T09:07:17;99278.28;;;8.78;81.27
83492;BME280;73661;56.120;12.302;2023-10-31T09:09:42;99274.72;;;8.88;81.18
83492;BME280;73661;56.120;12.302;2023-10-31T09:12:08;99267.94;;;8.72;81.45
83492;BME280;73661;56.120;12.302;2023-10-31T09:14:34;99269.50;;;8.91;80.95
83492;BME280;73661;56.120;12.302;2023-10-31T09:17:01;99273.78;;;8.97;80.52
83492;BME280;73661;56.120;12.302;2023-10-31T09:19:26;99268.78;;;8.74;81.25
83492;BME280;73661;56.120;12.302;2023-10-31T09:21:52;99256.53;;;8.87;80.97
83492;BME280;73661;56.120;12.302;2023-10-31T09:24:18;99268.72;;;8.83;81.36
83492;BME280;73661;56.120;12.302;2023-10-31T09:26:45;99262.63;;;8.84;80.85
83492;BME280;73661;56.120;12.302;2023-10-31T09:29:11;99255.53;;;8.98;80.44
83492;BME280;73661;56.120;12.302;2023-10-31T09:31:37;99263.56;;;8.77;81.39
83492;BME280;73661;56.120;12.302;2023-10-31T09:34:02;99257.38;;;8.87;80.45
83492;BME280;73661;56.120;12.302;2023-10-31T09:36:33;99255.75;;;8.77;80.81
83492;BME280;73661;56.120;12.302;2023-10-31T09:39:00;99247.28;;;8.55;81.63
83492;BME280;73661;56.120;12.302;2023-10-31T09:41:25;99254.09;;;8.70;81.67
83492;BME280;73661;56.120;12.302;2023-10-31T09:43:51;99254.09;;;8.70;81.20
83492;BME280;73661;56.120;12.302;2023-10-31T09:46:18;99249.69;;;8.75;80.71
83492;BME280;73661;56.120;12.302;2023-10-31T09:48:44;99258.44;;;8.71;80.95
83492;BME280;73661;56.120;12.302;2023-10-31T09:51:10;99255.44;;;9.06;80.12
83492;BME280;73661;56.120;12.302;2023-10-31T09:53:41;99249.88;;;8.57;82.00
83492;BME280;73661;56.120;12.302;2023-10-31T09:56:07;99251.47;;;8.73;81.35
83492;BME280;73661;56.120;12.302;2023-10-31T09:58:34;99254.13;;;8.67;81.56
83492;BME280;73661;56.120;12.302;2023-10-31T10:01:00;99246.31;;;8.67;81.55
83492;BME280;73661;56.120;12.302;2023-10-31T10:03:27;99240.28;;;8.62;82.06
83492;BME280;73661;56.120;12.302;2023-10-31T10:05:53;99241.75;;;8.87;81.39
83492;BME280;73661;56.120;12.302;2023-10-31T10:08:22;99242.59;;;8.89;81.59
83492;BME280;73661;56.120;12.302;2023-10-31T10:10:49;99244.53;;;8.72;81.71
83492;BME280;73661;56.120;12.302;2023-10-31T10:13:21;99244.97;;;8.18;83.30
83492;BME280;73661;56.120;12.302;2023-10-31T10:15:48;99243.16;;;8.28;84.13
83492;BME280;73661;56.120;12.302;2023-10-31T10:18:34;99246.91;;;8.96;81.42
83492;BME280;73661;56.120;12.302;2023-10-31T10:21:08;99249.50;;;8.95;80.99
83492;BME280;73661;56.120;12.302;2023-10-31T10:23:33;99242.34;;;8.23;83.26
83492;BME280;73661;56.120;12.302;2023-10-31T10:26:01;99243.28;;;8.16;84.81
83492;BME280;73661;56.120;12.302;2023-10-31T10:28:27;99241.59;;;8.06;84.74
83492;BME280;73661;56.120;12.302;2023-10-31T10:30:56;99246.72;;;8.18;84.87
83492;BME280;73661;56.120;12.302;2023-10-31T10:33:22;99241.44;;;8.27;84.80
83492;BME280;73661;56.120;12.302;2023-10-31T10:35:48;99239.81;;;8.14;84.93
83492;BME280;73661;56.120;12.302;2023-10-31T10:38:17;99238.16;;;8.04;84.97
83492;BME280;73661;56.120;12.302;2023-10-31T10:40:47;99236.34;;;8.12;84.88
83492;BME280;73661;56.120;12.302;2023-10-31T10:43:22;99232.91;;;8.11;85.07
83492;BME280;73661;56.120;12.302;2023-10-31T10:45:54;99231.13;;;8.16;85.00
83492;BME280;73661;56.120;12.302;2023-10-31T10:48:25;99225.16;;;8.04;85.72
83492;BME280;73661;56.120;12.302;2023-10-31T10:51:21;99231.84;;;8.38;84.87
83492;BME280;73661;56.120;12.302;2023-10-31T10:54:05;99244.88;;;8.28;85.07
83492;BME280;73661;56.120;12.302;2023-10-31T10:56:54;99228.41;;;8.29;84.69
83492;BME280;73661;56.120;12.302;2023-10-31T10:59:52;99228.41;;;8.36;84.50
83492;BME280;73661;56.120;12.302;2023-10-31T11:02:22;99226.53;;;8.49;84.67
83492;BME280;73661;56.120;12.302;2023-10-31T11:04:49;99230.13;;;8.37;84.77
83492;BME280;73661;56.120;12.302;2023-10-31T11:07:17;99215.34;;;8.44;84.63
83492;BME280;73661;56.120;12.302;2023-10-31T11:09:45;99222.28;;;8.43;84.47
83492;BME280;73661;56.120;12.302;2023-10-31T11:12:12;99222.34;;;8.28;84.99
83492;BME280;73661;56.120;12.302;2023-10-31T11:14:40;99227.50;;;8.34;84.63
83492;BME280;73661;56.120;12.302;2023-10-31T11:17:14;99230.19;;;8.22;85.23
83492;BME280;73661;56.120;12.302;2023-10-31T11:19:42;99228.50;;;8.23;84.79
83492;BME280;73661;56.120;12.302;2023-10-31T11:22:10;99232.16;;;7.97;85.93
83492;BME280;73661;56.120;12.302;2023-10-31T11:24:38;99220.78;;;8.10;85.42
83492;BME280;73661;56.120;12.302;2023-10-31T11:27:07;99231.19;;;8.10;85.24
83492;BME280;73661;56.120;12.302;2023-10-31T11:29:35;99229.47;;;8.09;84.80
83492;BME280;73661;56.120;12.302;2023-10-31T11:32:01;99226.06;;;7.95;85.37
83492;BME280;73661;56.120;12.302;2023-10-31T11:34:29;99226.09;;;7.93;85.09
83492;BME280;73661;56.120;12.302;2023-10-31T11:37:18;99224.31;;;8.00;84.69
83492;BME280;73661;56.120;12.302;2023-10-31T11:42:40;99230.44;;;7.88;85.01
83492;BME280;73661;56.120;12.302;2023-10-31T11:45:09;99211.53;;;7.71;85.03
83492;BME280;73661;56.120;12.302;2023-10-31T11:47:49;99223.50;;;7.89;84.71
83492;BME280;73661;56.120;12.302;2023-10-31T11:50:16;99211.56;;;7.70;85.34
83492;BME280;73661;56.120;12.302;2023-10-31T11:52:42;99226.16;;;7.86;84.83
83492;BME280;73661;56.120;12.302;2023-10-31T11:55:13;99224.41;;;7.86;84.70
83492;BME280;73661;56.120;12.302;2023-10-31T11:57:39;99224.53;;;7.70;85.03
83492;BME280;73661;56.120;12.302;2023-10-31T12:00:06;99231.41;;;7.77;84.78
83492;BME280;73661;56.120;12.302;2023-10-31T12:02:35;99227.13;;;7.70;84.96
83492;BME280;73661;56.120;12.302;2023-10-31T12:05:11;99226.31;;;7.58;85.05
83492;BME280;73661;56.120;12.302;2023-10-31T12:07:46;99235.00;;;7.53;85.11
83492;BME280;73661;56.120;12.302;2023-10-31T12:10:13;99232.38;;;7.59;85.13
83492;BME280;73661;56.120;12.302;2023-10-31T12:12:47;99230.75;;;7.43;85.18
83492;BME280;73661;56.120;12.302;2023-10-31T12:15:13;99235.16;;;7.18;85.63
83492;BME280;73661;56.120;12.302;2023-10-31T12:17:39;99244.66;;;7.22;85.57
83492;BME280;73661;56.120;12.302;2023-10-31T12:20:07;99253.28;;;7.31;86.11
83492;BME280;73661;56.120;12.302;2023-10-31T12:22:36;99246.31;;;7.35;85.23
83492;BME280;73661;56.120;12.302;2023-10-31T12:25:03;99246.38;;;7.24;84.97
83492;BME280;73661;56.120;12.302;2023-10-31T12:27:48;99258.53;;;7.08;84.92
83492;BME280;73661;56.120;12.302;2023-10-31T12:30:20;99261.16;;;7.05;85.81
83492;BME280;73661;56.120;12.302;2023-10-31T12:32:54;99258.56;;;7.10;85.94
83492;BME280;73661;56.120;12.302;2023-10-31T12:35:22;99263.75;;;7.07;85.72
83492;BME280;73661;56.120;12.302;2023-10-31T12:37:49;99249.84;;;7.20;85.84
83492;BME280;73661;56.120;12.302;2023-10-31T12:40:22;99267.09;;;7.33;85.05
83492;BME280;73661;56.120;12.302;2023-10-31T12:42:49;99265.44;;;7.14;85.27
83492;BME280;73661;56.120;12.302;2023-10-31T12:45:18;99266.31;;;7.16;85.31
83492;BME280;73661;56.120;12.302;2023-10-31T12:47:44;99269.81;;;7.09;85.67
83492;BME280;73661;56.120;12.302;2023-10-31T12:50:13;99267.16;;;7.21;85.04
83492;BME280;73661;56.120;12.302;2023-10-31T12:52:52;99272.38;;;7.10;85.42
83492;BME280;73661;56.120;12.302;2023-10-31T12:55:23;99273.22;;;7.14;85.35
83492;BME280;73661;56.120;12.302;2023-10-31T12:57:50;99282.78;;;7.03;85.62
83492;BME280;73661;56.120;12.302;2023-10-31T13:00:18;99283.59;;;7.19;85.14